createdAt,value
2018-02-21T00:00:19.740Z,29.00
2018-02-21T00:02:52.276Z,30.23
2018-02-21T00:05:24.891Z,27.73
2018-02-21T00:07:57.398Z,28.70
2018-02-21T00:10:29.924Z,29.30
2018-02-21T00:13:03.006Z,29.27
2018-02-21T00:15:35.546Z,28.27
2018-02-21T00:18:08.083Z,29.50
2018-02-21T00:20:40.613Z,30.87
2018-02-21T00:23:13.139Z,29.90
2018-02-21T00:25:46.740Z,28.63
2018-02-21T00:28:19.308Z,27.87
2018-02-21T00:30:51.825Z,28.30
2018-02-21T00:33:24.337Z,29.20
2018-02-21T00:35:56.861Z,28.90
2018-02-21T00:38:29.357Z,29.73
2018-02-21T00:41:02.282Z,27.80
2018-02-21T00:43:34.823Z,28.80
2018-02-21T00:46:07.365Z,28.87
2018-02-21T00:48:39.880Z,27.33
2018-02-21T00:51:13.029Z,29.10
2018-02-21T00:53:45.594Z,27.50
2018-02-21T00:56:18.120Z,27.53
2018-02-21T00:58:50.623Z,28.00
2018-02-21T01:01:23.549Z,29.90
2018-02-21T01:03:56.103Z,28.03
2018-02-21T01:06:28.637Z,27.23
2018-02-21T01:09:01.140Z,25.73
2018-02-21T01:11:33.658Z,30.30
2018-02-21T01:14:06.568Z,28.30
2018-02-21T01:16:39.499Z,27.97
2018-02-21T01:19:12.308Z,29.10
2018-02-21T01:21:44.887Z,26.97
2018-02-21T01:24:17.400Z,27.37
2018-02-21T01:26:49.937Z,28.30
2018-02-21T01:29:22.435Z,28.50
2018-02-21T01:31:55.063Z,27.50
2018-02-21T01:34:27.898Z,28.03
2018-02-21T01:37:00.434Z,27.40
2018-02-21T01:39:33.141Z,27.27
2018-02-21T01:42:05.673Z,27.70
2018-02-21T01:44:38.246Z,28.10
2018-02-21T01:47:10.802Z,27.77
2018-02-21T01:49:43.304Z,29.77
2018-02-21T01:52:15.913Z,28.50
2018-02-21T01:54:48.419Z,26.90
2018-02-21T01:57:20.952Z,28.13
2018-02-21T01:59:53.632Z,27.40
2018-02-21T02:02:26.165Z,27.27
2018-02-21T02:04:58.855Z,26.30
2018-02-21T02:07:31.546Z,30.73
2018-02-21T02:10:04.058Z,28.73
2018-02-21T02:12:36.603Z,27.07
2018-02-21T02:15:09.102Z,26.70
2018-02-21T02:17:41.673Z,31.47
2018-02-21T02:20:14.209Z,28.93
2018-02-21T02:22:46.768Z,29.63
2018-02-21T02:25:19.277Z,26.80
2018-02-21T02:27:51.804Z,28.07
2018-02-21T02:30:24.360Z,29.13
2018-02-21T02:32:56.859Z,28.50
2018-02-21T02:35:29.358Z,28.13
2018-02-21T02:38:01.897Z,27.93
2018-02-21T02:40:34.401Z,30.33
2018-02-21T02:43:06.961Z,32.47
2018-02-21T02:45:39.480Z,29.87
2018-02-21T02:48:12.038Z,27.57
2018-02-21T02:50:44.577Z,27.37
2018-02-21T02:53:17.124Z,27.70
2018-02-21T02:55:49.803Z,26.63
2018-02-21T02:58:22.375Z,30.30
2018-02-21T03:00:55.002Z,31.00
2018-02-21T03:03:27.535Z,27.50
2018-02-21T03:06:00.039Z,27.63
2018-02-21T03:08:32.570Z,27.93
2018-02-21T03:11:05.083Z,26.53
2018-02-21T03:13:37.612Z,27.10
2018-02-21T03:16:10.131Z,27.73
2018-02-21T03:18:42.656Z,28.27
2018-02-21T03:21:15.172Z,27.87
2018-02-21T03:23:47.699Z,31.03
2018-02-21T03:26:20.204Z,30.73
2018-02-21T03:28:52.729Z,27.10
2018-02-21T03:31:25.273Z,26.07
2018-02-21T03:33:57.781Z,26.07
2018-02-21T03:36:30.317Z,26.33
2018-02-21T03:39:02.828Z,26.83
2018-02-21T03:41:35.360Z,25.97
2018-02-21T03:44:07.865Z,26.47
2018-02-21T03:46:40.479Z,27.73
2018-02-21T03:49:13.007Z,26.13
2018-02-21T03:51:45.565Z,26.43
2018-02-21T03:54:18.085Z,25.77
2018-02-21T03:56:50.612Z,25.13
2018-02-21T03:59:23.112Z,25.40
2018-02-21T04:01:55.660Z,26.67
2018-02-21T04:04:28.165Z,26.53
2018-02-21T04:07:00.701Z,24.97
2018-02-21T04:09:33.641Z,26.70
2018-02-21T04:12:06.166Z,26.37
2018-02-21T04:14:38.674Z,26.43
2018-02-21T04:17:11.216Z,26.93
2018-02-21T04:19:43.729Z,24.23
2018-02-21T04:22:16.277Z,27.17
2018-02-21T04:24:48.783Z,25.53
2018-02-21T04:27:21.346Z,27.87
2018-02-21T04:29:53.862Z,23.80
2018-02-21T04:32:26.394Z,25.53
2018-02-21T04:34:58.916Z,28.23
2018-02-21T04:37:31.443Z,26.63
2018-02-21T04:40:03.950Z,25.20
2018-02-21T04:42:36.478Z,24.33
2018-02-21T04:45:08.991Z,28.90
2018-02-21T04:47:41.514Z,26.77
2018-02-21T04:50:14.015Z,23.93
2018-02-21T04:52:46.597Z,25.87
2018-02-21T04:55:24.850Z,25.87
2018-02-21T04:58:05.932Z,25.57
2018-02-21T05:00:38.471Z,27.10
2018-02-21T05:03:11.090Z,24.80
2018-02-21T05:05:43.588Z,26.23
2018-02-21T05:08:16.119Z,26.97
2018-02-21T05:10:48.625Z,27.90
2018-02-21T05:13:21.149Z,23.90
2018-02-21T05:15:53.659Z,25.67
2018-02-21T05:18:26.185Z,26.10
2018-02-21T05:20:58.693Z,28.50
2018-02-21T05:23:31.236Z,25.03
2018-02-21T05:26:03.754Z,25.77
2018-02-21T05:28:36.278Z,26.93
2018-02-21T05:31:09.601Z,25.30
2018-02-21T05:33:42.121Z,25.93
2018-02-21T05:36:14.623Z,25.13
2018-02-21T05:38:47.150Z,27.43
2018-02-21T05:41:19.661Z,27.37
2018-02-21T05:43:52.185Z,28.03
2018-02-21T05:46:24.680Z,25.00
2018-02-21T05:48:57.210Z,26.63
2018-02-21T05:51:29.707Z,27.60
2018-02-21T05:54:02.248Z,25.30
2018-02-21T05:56:34.754Z,25.83
2018-02-21T05:59:07.296Z,26.53
2018-02-21T06:01:39.807Z,27.50
2018-02-21T06:04:12.445Z,27.67
2018-02-21T06:06:44.973Z,26.00
2018-02-21T06:09:17.515Z,28.43
2018-02-21T06:11:50.093Z,26.97
2018-02-21T06:14:22.617Z,26.47
2018-02-21T06:16:55.112Z,28.80
2018-02-21T06:19:27.642Z,27.83
2018-02-21T06:22:00.160Z,26.70
2018-02-21T06:24:32.700Z,28.77
2018-02-21T06:27:05.199Z,27.53
2018-02-21T06:29:37.748Z,27.57
2018-02-21T06:32:10.276Z,26.73
2018-02-21T06:34:42.810Z,26.57
2018-02-21T06:37:15.320Z,26.10
2018-02-21T06:39:47.858Z,27.57
2018-02-21T06:42:20.373Z,28.43
2018-02-21T06:44:52.910Z,27.77
2018-02-21T06:47:25.460Z,28.83
2018-02-21T06:49:57.977Z,26.97
2018-02-21T06:52:30.526Z,25.97
2018-02-21T06:55:03.038Z,26.10
2018-02-21T06:57:35.594Z,25.40
2018-02-21T07:00:08.105Z,30.60
2018-02-21T07:02:40.637Z,30.07
2018-02-21T07:05:13.200Z,30.97
2018-02-21T07:07:45.725Z,31.20
2018-02-21T07:10:18.234Z,35.07
2018-02-21T07:12:50.777Z,31.13
2018-02-21T07:15:23.335Z,28.53
2018-02-21T07:17:55.838Z,27.47
2018-02-21T07:20:28.341Z,27.13
2018-02-21T07:23:00.860Z,26.70
2018-02-21T07:25:33.377Z,28.57
2018-02-21T07:28:05.904Z,27.97
2018-02-21T07:30:38.414Z,29.33
2018-02-21T07:33:10.939Z,28.77
2018-02-21T07:35:43.446Z,27.20
2018-02-21T07:38:15.981Z,24.97
2018-02-21T07:40:48.500Z,27.47
2018-02-21T07:43:21.026Z,26.17
2018-02-21T07:45:53.553Z,25.50
2018-02-21T07:48:26.087Z,26.57
2018-02-21T07:50:58.579Z,25.40
2018-02-21T07:53:31.104Z,28.00
2018-02-21T07:56:03.620Z,26.40
2018-02-21T07:58:36.156Z,27.73
2018-02-21T08:01:08.670Z,27.80
2018-02-21T08:03:41.199Z,29.93
2018-02-21T08:06:13.683Z,34.83
2018-02-21T08:08:46.221Z,29.83
2018-02-21T08:11:18.725Z,28.63
2018-02-21T08:13:51.238Z,27.67
2018-02-21T08:16:23.742Z,26.70
2018-02-21T08:18:56.264Z,27.07
2018-02-21T08:21:28.763Z,26.03
2018-02-21T08:24:01.319Z,27.10
2018-02-21T08:26:33.812Z,27.33
2018-02-21T08:29:06.327Z,29.87
2018-02-21T08:31:38.838Z,25.40
2018-02-21T08:34:11.368Z,29.17
2018-02-21T08:36:43.863Z,27.30
2018-02-21T08:39:16.374Z,28.07
2018-02-21T08:41:48.891Z,25.50
2018-02-21T08:44:21.410Z,25.53
2018-02-21T08:46:53.924Z,24.63
2018-02-21T08:49:26.478Z,26.20
2018-02-21T08:51:58.977Z,25.20
2018-02-21T08:54:31.498Z,28.00
2018-02-21T08:57:04.010Z,27.10
2018-02-21T08:59:36.537Z,26.77
2018-02-21T09:02:09.052Z,28.17
2018-02-21T09:04:41.593Z,26.27
2018-02-21T09:07:14.092Z,28.27
2018-02-21T09:09:46.618Z,28.40
2018-02-21T09:12:19.120Z,28.77
2018-02-21T09:14:51.632Z,28.57
2018-02-21T09:17:24.137Z,28.30
2018-02-21T09:19:56.652Z,27.27
2018-02-21T09:22:29.153Z,25.73
2018-02-21T09:25:01.684Z,26.43
2018-02-21T09:27:34.230Z,24.23
2018-02-21T09:30:06.770Z,25.77
2018-02-21T09:32:39.264Z,25.43
2018-02-21T09:35:11.797Z,22.83
2018-02-21T09:37:44.299Z,25.77
2018-02-21T09:40:16.827Z,25.90
2018-02-21T09:42:49.326Z,24.37
2018-02-21T09:45:21.847Z,25.30
2018-02-21T09:47:54.352Z,25.17
2018-02-21T09:50:26.874Z,24.10
2018-02-21T09:52:59.401Z,25.23
2018-02-21T09:55:31.935Z,23.33
2018-02-21T09:58:04.453Z,22.63
2018-02-21T10:00:36.981Z,23.37
2018-02-21T10:03:09.488Z,22.37
2018-02-21T10:05:42.004Z,24.57
2018-02-21T10:08:14.525Z,23.00
2018-02-21T10:10:47.060Z,22.80
2018-02-21T10:13:19.554Z,22.50
2018-02-21T10:15:52.088Z,23.27
2018-02-21T10:18:24.589Z,22.77
2018-02-21T10:20:57.110Z,24.27
2018-02-21T10:23:29.608Z,23.20
2018-02-21T10:26:02.119Z,23.00
2018-02-21T10:28:34.632Z,22.20
2018-02-21T10:31:07.164Z,21.37
2018-02-21T10:33:39.666Z,22.33
2018-02-21T10:36:12.203Z,22.27
2018-02-21T10:38:44.714Z,23.20
2018-02-21T10:41:17.232Z,22.50
2018-02-21T10:43:49.772Z,22.50
2018-02-21T10:46:22.277Z,22.77
2018-02-21T10:48:54.800Z,22.50
2018-02-21T10:51:27.312Z,20.90
2018-02-21T10:53:59.913Z,20.47
2018-02-21T10:56:32.398Z,21.13
2018-02-21T10:59:04.924Z,22.43
2018-02-21T11:01:37.442Z,22.30
2018-02-21T11:04:10.015Z,20.77
2018-02-21T11:06:42.521Z,21.60
2018-02-21T11:09:15.037Z,21.00
2018-02-21T11:11:47.547Z,20.20
2018-02-21T11:14:20.069Z,19.60
2018-02-21T11:16:52.591Z,21.33
2018-02-21T11:19:25.116Z,19.60
2018-02-21T11:21:57.621Z,21.70
2018-02-21T11:24:30.250Z,19.23
2018-02-21T11:27:02.750Z,20.80
2018-02-21T11:29:35.277Z,20.73
2018-02-21T11:32:07.836Z,18.47
2018-02-21T11:34:40.363Z,19.63
2018-02-21T11:37:12.873Z,20.53
2018-02-21T11:39:45.405Z,19.47
2018-02-21T11:42:17.896Z,20.30
2018-02-21T11:44:50.426Z,20.17
2018-02-21T11:47:22.931Z,16.73
2018-02-21T11:49:56.414Z,17.27
2018-02-21T11:52:28.927Z,16.83
2018-02-21T11:55:01.447Z,17.60
2018-02-21T11:57:33.950Z,16.00
2018-02-21T12:00:06.481Z,15.80
2018-02-21T12:02:38.988Z,16.60
2018-02-21T12:05:11.529Z,15.00
2018-02-21T12:07:44.053Z,16.67
2018-02-21T12:10:16.611Z,16.73
2018-02-21T12:12:49.126Z,15.47
2018-02-21T12:15:21.655Z,15.70
2018-02-21T12:17:54.148Z,15.70
2018-02-21T12:20:26.679Z,15.20
2018-02-21T12:22:59.182Z,14.77
2018-02-21T12:25:31.718Z,14.57
2018-02-21T12:28:04.220Z,14.60
2018-02-21T12:30:36.740Z,13.73
2018-02-21T12:33:09.251Z,13.90
2018-02-21T12:35:41.784Z,14.07
2018-02-21T12:38:14.288Z,14.70
2018-02-21T12:40:52.500Z,14.37
2018-02-21T12:43:25.092Z,13.63
2018-02-21T12:45:57.638Z,13.03
2018-02-21T12:48:30.153Z,14.23
2018-02-21T12:51:02.686Z,18.37
2018-02-21T12:53:35.227Z,16.90
2018-02-21T12:56:07.747Z,17.73
2018-02-21T12:58:40.256Z,17.50
2018-02-21T13:01:12.791Z,13.23
2018-02-21T13:03:45.313Z,14.43
2018-02-21T13:06:17.835Z,14.93
2018-02-21T13:08:50.340Z,13.27
2018-02-21T13:11:22.862Z,13.03
2018-02-21T13:13:55.381Z,13.80
2018-02-21T13:16:27.922Z,13.57
2018-02-21T13:19:00.467Z,13.50
2018-02-21T13:21:33.020Z,13.67
2018-02-21T13:24:05.519Z,13.80
2018-02-21T13:26:38.041Z,13.77
2018-02-21T13:29:10.575Z,13.57
2018-02-21T13:31:43.154Z,13.73
2018-02-21T13:34:15.671Z,12.37
2018-02-21T13:36:48.204Z,13.03
2018-02-21T13:39:20.721Z,13.83
2018-02-21T13:41:53.247Z,13.63
2018-02-21T13:44:25.766Z,14.10
2018-02-21T13:46:58.285Z,13.47
2018-02-21T13:49:30.803Z,13.47
2018-02-21T13:52:03.321Z,13.60
2018-02-21T13:54:35.829Z,13.20
2018-02-21T13:57:08.362Z,13.53
2018-02-21T13:59:40.864Z,13.13
2018-02-21T14:02:13.389Z,14.10
2018-02-21T14:04:45.890Z,13.23
2018-02-21T14:07:18.423Z,13.33
2018-02-21T14:09:50.987Z,13.33
2018-02-21T14:12:23.516Z,13.27
2018-02-21T14:14:56.020Z,13.23
2018-02-21T14:17:28.592Z,13.67
2018-02-21T14:20:01.064Z,12.57
2018-02-21T14:22:33.583Z,13.20
2018-02-21T14:25:06.082Z,13.67
2018-02-21T14:27:38.600Z,12.47
2018-02-21T14:30:11.109Z,12.70
2018-02-21T14:32:43.601Z,12.53
2018-02-21T14:35:16.137Z,13.27
2018-02-21T14:37:48.627Z,12.67
2018-02-21T14:40:21.146Z,13.07
2018-02-21T14:42:53.652Z,12.87
2018-02-21T14:45:26.178Z,13.17
2018-02-21T14:47:58.697Z,12.70
2018-02-21T14:50:31.220Z,12.60
2018-02-21T14:53:03.746Z,12.37
2018-02-21T14:55:36.261Z,12.37
2018-02-21T14:58:08.774Z,12.17
2018-02-21T15:00:41.305Z,15.33
2018-02-21T15:03:13.818Z,21.17
2018-02-21T15:05:46.336Z,15.57
2018-02-21T15:08:18.837Z,12.97
2018-02-21T15:10:51.371Z,11.20
2018-02-21T15:13:23.897Z,12.57
2018-02-21T15:15:56.431Z,11.27
2018-02-21T15:18:28.933Z,12.70
2018-02-21T15:21:01.461Z,11.90
2018-02-21T15:23:33.977Z,12.43
2018-02-21T15:26:06.517Z,12.90
2018-02-21T15:28:39.036Z,13.50
2018-02-21T15:31:11.570Z,13.20
2018-02-21T15:33:44.080Z,13.07
2018-02-21T15:36:16.608Z,12.93
2018-02-21T15:38:49.188Z,13.90
2018-02-21T15:41:21.738Z,12.53
2018-02-21T15:43:54.246Z,14.23
2018-02-21T15:46:26.801Z,13.33
2018-02-21T15:48:59.313Z,13.30
2018-02-21T15:51:31.853Z,12.07
2018-02-21T15:54:04.355Z,13.03
2018-02-21T15:56:36.881Z,13.83
2018-02-21T15:59:09.401Z,13.77
2018-02-21T16:01:41.954Z,12.83
2018-02-21T16:04:14.487Z,13.20
2018-02-21T16:06:47.013Z,13.73
2018-02-21T16:09:19.514Z,13.67
2018-02-21T16:11:52.041Z,11.77
2018-02-21T16:14:24.575Z,13.50
2018-02-21T16:16:57.103Z,12.47
2018-02-21T16:19:29.618Z,12.97
2018-02-21T16:22:02.170Z,12.77
2018-02-21T16:24:34.680Z,13.93
2018-02-21T16:27:07.230Z,14.77
2018-02-21T16:29:39.735Z,13.47
2018-02-21T16:34:51.155Z,13.47
2018-02-21T16:37:23.698Z,13.83
2018-02-21T16:39:56.217Z,12.00
2018-02-21T16:42:28.745Z,12.67
2018-02-21T16:45:01.252Z,13.70
2018-02-21T16:47:33.784Z,12.90
2018-02-21T16:50:06.299Z,12.83
2018-02-21T16:52:38.819Z,13.03
2018-02-21T16:55:11.329Z,12.87
2018-02-21T16:57:43.848Z,12.77
2018-02-21T17:00:16.369Z,13.17
2018-02-21T17:02:54.349Z,12.27
2018-02-21T17:05:26.874Z,12.77
2018-02-21T17:07:59.403Z,13.13
2018-02-21T17:10:31.903Z,14.67
2018-02-21T17:13:04.425Z,14.60
2018-02-21T17:15:36.928Z,14.60
2018-02-21T17:18:09.452Z,14.43
2018-02-21T17:20:41.981Z,14.40
2018-02-21T17:23:14.517Z,15.00
2018-02-21T17:25:47.022Z,14.47
2018-02-21T17:28:19.566Z,15.33
2018-02-21T17:30:52.064Z,14.80
2018-02-21T17:33:24.596Z,14.70
2018-02-21T17:35:57.092Z,14.43
2018-02-21T17:38:29.624Z,14.70
2018-02-21T17:44:08.885Z,15.77
2018-02-21T17:46:41.410Z,14.57
2018-02-21T17:49:13.916Z,14.90
2018-02-21T17:51:46.441Z,14.90
2018-02-21T17:54:18.942Z,14.93
2018-02-21T17:56:51.486Z,15.80
2018-02-21T17:59:23.982Z,14.90
2018-02-21T18:01:56.510Z,15.80
2018-02-21T18:04:29.006Z,15.27
2018-02-21T18:07:01.528Z,15.03
2018-02-21T18:09:34.048Z,15.53
2018-02-21T18:12:06.579Z,15.13
2018-02-21T18:14:39.092Z,15.80
2018-02-21T18:17:11.627Z,15.90
2018-02-21T18:19:44.129Z,15.43
2018-02-21T18:22:16.683Z,17.57
2018-02-21T18:24:49.238Z,16.30
2018-02-21T18:27:21.792Z,16.87
2018-02-21T18:29:54.335Z,16.00
2018-02-21T18:32:26.860Z,17.23
2018-02-21T18:34:59.366Z,15.97
2018-02-21T18:37:31.892Z,17.57
2018-02-21T18:40:04.447Z,15.33
2018-02-21T18:42:36.978Z,16.83
2018-02-21T18:45:09.475Z,16.30
2018-02-21T18:47:42.004Z,16.63
2018-02-21T18:50:18.337Z,16.73
2018-02-21T18:52:50.879Z,16.67
2018-02-21T18:55:23.391Z,16.77
2018-02-21T18:57:55.928Z,15.50
2018-02-21T19:00:28.441Z,17.03
2018-02-21T19:03:01.031Z,15.80
2018-02-21T19:05:33.540Z,15.67
2018-02-21T19:08:06.096Z,16.27
2018-02-21T19:10:38.606Z,16.77
2018-02-21T19:13:11.121Z,15.97
2018-02-21T19:15:43.624Z,15.87
2018-02-21T19:18:16.149Z,16.57
2018-02-21T19:20:48.651Z,16.63
2018-02-21T19:23:21.177Z,15.80
2018-02-21T19:25:53.687Z,17.07
2018-02-21T19:28:26.228Z,17.33
2018-02-21T19:30:58.736Z,15.80
2018-02-21T19:33:31.250Z,16.80
2018-02-21T19:36:03.756Z,17.57
2018-02-21T19:38:36.290Z,17.20
2018-02-21T19:41:08.824Z,16.30
2018-02-21T19:43:41.410Z,16.23
2018-02-21T19:46:13.916Z,16.13
2018-02-21T19:48:46.465Z,16.50
2018-02-21T19:51:18.975Z,17.43
2018-02-21T19:53:51.510Z,16.63
2018-02-21T19:56:24.012Z,17.43
2018-02-21T19:58:56.703Z,15.77
2018-02-21T20:01:29.183Z,16.80
2018-02-21T20:04:01.705Z,16.83
2018-02-21T20:06:34.274Z,17.20
2018-02-21T20:09:06.937Z,16.10
2018-02-21T20:11:39.454Z,15.90
2018-02-21T20:14:11.995Z,16.23
2018-02-21T20:16:44.576Z,16.00
2018-02-21T20:19:17.110Z,16.53
2018-02-21T20:21:49.712Z,15.00
2018-02-21T20:24:22.276Z,15.63
2018-02-21T20:26:54.821Z,16.43
2018-02-21T20:29:27.372Z,15.27
2018-02-21T20:31:59.952Z,16.40
2018-02-21T20:34:32.473Z,15.43
2018-02-21T20:37:05.037Z,16.53
2018-02-21T20:39:37.572Z,16.17
2018-02-21T20:42:10.096Z,16.73
2018-02-21T20:44:42.625Z,17.10
2018-02-21T20:47:15.151Z,15.67
2018-02-21T20:49:47.677Z,15.83
2018-02-21T20:52:20.222Z,16.23
2018-02-21T20:54:52.785Z,16.97
2018-02-21T20:57:25.287Z,16.47
2018-02-21T20:59:57.821Z,17.67
2018-02-21T21:02:30.336Z,16.87
2018-02-21T21:05:02.856Z,17.10
2018-02-21T21:07:35.404Z,18.77
2018-02-21T21:10:08.245Z,17.20
2018-02-21T21:12:40.812Z,18.50
2018-02-21T21:15:13.333Z,18.83
2018-02-21T21:17:45.841Z,18.40
2018-02-21T21:20:18.763Z,19.60
2018-02-21T21:22:51.305Z,18.50
2018-02-21T21:25:23.810Z,17.80
2018-02-21T21:27:56.323Z,18.00
2018-02-21T21:30:28.862Z,17.73
2018-02-21T21:33:01.436Z,17.97
2018-02-21T21:35:33.932Z,18.23
2018-02-21T21:38:06.468Z,19.87
2018-02-21T21:40:39.028Z,19.27
2018-02-21T21:43:11.573Z,17.10
2018-02-21T21:45:44.130Z,16.97
2018-02-21T21:48:16.652Z,19.63
2018-02-21T21:50:49.154Z,17.43
2018-02-21T21:53:21.689Z,19.00
2018-02-21T21:55:54.193Z,18.37
2018-02-21T21:58:26.848Z,18.43
2018-02-21T22:00:59.359Z,21.00
2018-02-21T22:03:31.911Z,18.57
2018-02-21T22:06:04.460Z,18.23
2018-02-21T22:08:36.992Z,18.37
2018-02-21T22:11:09.512Z,17.93
2018-02-21T22:13:42.025Z,17.37
2018-02-21T22:16:14.564Z,18.07
2018-02-21T22:18:47.093Z,18.30
2018-02-21T22:21:19.592Z,18.73
2018-02-21T22:23:52.146Z,19.73
2018-02-21T22:26:24.647Z,18.63
2018-02-21T22:28:57.189Z,20.43
2018-02-21T22:31:29.722Z,21.03
2018-02-21T22:34:02.262Z,20.43
2018-02-21T22:36:34.788Z,21.80
2018-02-21T22:39:07.306Z,19.73
2018-02-21T22:41:39.806Z,19.83
2018-02-21T22:44:12.329Z,18.93
2018-02-21T22:46:44.837Z,18.67
2018-02-21T22:49:17.367Z,18.10
2018-02-21T22:51:49.875Z,19.00
2018-02-21T22:54:22.411Z,19.37
2018-02-21T22:56:54.924Z,18.90
2018-02-21T22:59:27.451Z,18.50
2018-02-21T23:01:59.946Z,18.53
2018-02-21T23:04:32.488Z,18.97
2018-02-21T23:07:05.037Z,18.73
2018-02-21T23:09:37.564Z,18.07
2018-02-21T23:12:10.090Z,17.80
2018-02-21T23:14:42.614Z,17.27
2018-02-21T23:17:15.156Z,17.10
2018-02-21T23:19:47.677Z,16.70
2018-02-21T23:22:20.188Z,18.37
2018-02-21T23:24:52.744Z,17.90
2018-02-21T23:27:25.322Z,16.73
2018-02-21T23:29:57.867Z,17.27
2018-02-21T23:32:30.423Z,16.57
2018-02-21T23:35:02.954Z,17.27
2018-02-21T23:37:35.692Z,18.60
2018-02-21T23:40:08.255Z,18.30
2018-02-21T23:42:40.777Z,17.57
2018-02-21T23:45:13.308Z,18.70
2018-02-21T23:47:45.797Z,19.67
2018-02-21T23:50:18.354Z,18.97
2018-02-21T23:52:50.873Z,19.93
2018-02-21T23:55:23.415Z,19.07
2018-02-21T23:57:55.949Z,17.80
